Greenview, CA

11:45 PM PDT on October 24, 2014 (GMT -0700)
Weaverville | Change Station
CLOSE
Current Station
Airport
Location: Weaverville,
Elevation: 2349 ft
Nearby Weather Stations

Elev 2349 ft 40.75 °N, 122.92 °W | Updated 10 minutes ago

Partly Cloudy
Partly Cloudy
57 °F
Feels Like 57 °F
N
8
Wind Variable Wind from NNE

Today
High -- | Low -- °F
--% Chance of Precip.
Yesterday
High -- | Low -- °F
Precip. -- in
7:34 AM 6:16 PM
New Moon, 2% visible
Pressure 29.82 in
Visibility 10.0 miles
Clouds Clear
Dew Point 48 °F
Humidity 72%
Rainfall 0.06 in
Snow Depth Not available.
UV 0 out of 12
Pollen .40 out of 12
Air Quality Not available.
Flu Activity Sporadic
METAR KO54 250635Z AUTO 03007KT 10SM CLR 14/09 A2982 RMK AO1

More Conditions Fewer Conditions

Pressure 29.82 in
Visibility 10.0 miles
Clouds Clear
Dew Point 48 °F
Humidity 72%
Rainfall 0.06 in
Snow Depth Not available.
UV 0 out of 12
Pollen .40 out of 12
Air Quality Not available.
Flu Activity Sporadic
METAR KO54 250635Z AUTO 03007KT 10SM CLR 14/09 A2982 RMK AO1

More Conditions Fewer Conditions

10-Day Weather Forecast

Almanac

Astronomy

Oct. 24, 2014 Rise Set
Actual Time 7:34 AM PDT 6:16 PM PDT
Civil Twilight 7:05 AM PDT 6:45 PM PDT
Nautical Twilight 6:33 AM PDT 7:17 PM PDT
Astronomical Twilight 6:01 AM PDT 7:49 PM PDT
Moon 8:19 AM PDT (10/24) 7:00 PM PDT (10/24)
Length of Visible Light 11h 39m
Length of Day
10h 42m
Tomorrow will be 2m 34s shorter.
New Moon, 2% of the Moon is Illuminated
Oct 25
New Moon
Oct 30
First Quarter
Nov 6
Full
Nov 14
Last Quarter
Nov 22
New

Community

WunderPhotos

Upload Photos

1,764,787 photos uploaded!

Nearby

Snow Depth

Station Depth Elevation
Adin Mountain 0 in 6200 ft
Crowder Flat 0 in 5100 ft
Independence Lake 0 in 8450 ft
Squaw Valley 0 in 8200 ft
Tahoe City Cross 0 in 6750 ft

Earthquake Activity

City Distance Mag. Time & Date
No recent earthquake activity has been reported nearby.
Minimum magnitude displayed is 2.5.

Coastal Water Temperatures

Place Temperature
No Stations Reporting

Nearby Weather Stations